Montfoort, Netherlands
Current Conditions -  °F | °C
As of 7:25 AM on Friday 28 Nov 2014 (Local Time) from EHAM Reporting Station
Haze Haze  
Wind Chill: 37°   Ceiling: 300
Heat Index: 43°   Visibility: 1.3mi
Dew Point: 43°   Wind: 9mph
Humidity: 100%   Direction: 100°E
Pressure: 29.74"   Gusts: NA
Location:  52.05°N, 4.95°E
Report Text: EHAM 280625Z 10008KT 060V130 2100 BR OVC003 06/06 Q1007 BECMG3500 OVC004
Loading
Personal Weather Stations






























Interactive Weather Map New forecast layout! Learn more

10-Day Weather Forecast

Advertisements
Track Severe Weather on mobile